createdAt,value
2019-03-22T00:00:03.717Z,12
2019-03-22T00:01:01.415Z,14
2019-03-22T00:02:01.643Z,13
2019-03-22T00:03:01.892Z,14
2019-03-22T00:04:02.249Z,13
2019-03-22T00:05:01.765Z,12
2019-03-22T00:06:01.727Z,14
2019-03-22T00:07:01.919Z,13
2019-03-22T00:08:02.179Z,14
2019-03-22T00:09:02.306Z,13
2019-03-22T00:10:01.621Z,12
2019-03-22T00:11:01.786Z,13
2019-03-22T00:12:04.220Z,12
2019-03-22T00:13:02.284Z,14
2019-03-22T00:14:01.511Z,13
2019-03-22T00:15:01.862Z,14
2019-03-22T00:16:02.037Z,13
2019-03-22T00:17:02.258Z,11
2019-03-22T00:18:01.448Z,14
2019-03-22T00:19:01.740Z,13
2019-03-22T00:20:01.960Z,13
2019-03-22T00:21:02.250Z,12
2019-03-22T00:22:01.456Z,13
2019-03-22T00:23:01.631Z,12
2019-03-22T00:24:01.899Z,13
2019-03-22T00:25:02.131Z,13
2019-03-22T00:26:02.338Z,13
2019-03-22T00:27:01.538Z,14
2019-03-22T00:28:01.790Z,14
2019-03-22T00:29:02.039Z,14
2019-03-22T00:30:02.389Z,14
2019-03-22T00:31:01.516Z,11
2019-03-22T00:32:01.764Z,13
2019-03-22T00:33:02.086Z,12
2019-03-22T00:34:02.302Z,13
2019-03-22T00:35:01.474Z,13
2019-03-22T00:36:01.837Z,13
2019-03-22T00:37:02.050Z,11
2019-03-22T00:38:02.266Z,13
2019-03-22T00:39:01.465Z,13
2019-03-22T00:40:01.709Z,15
2019-03-22T00:41:01.849Z,12
2019-03-22T00:42:01.650Z,15
2019-03-22T00:43:01.932Z,12
2019-03-22T00:44:02.100Z,14
2019-03-22T00:45:02.348Z,13
2019-03-22T00:46:01.582Z,13
2019-03-22T00:47:01.818Z,13
2019-03-22T00:48:02.029Z,12
2019-03-22T00:49:02.237Z,14
2019-03-22T00:50:01.532Z,11
2019-03-22T00:51:01.750Z,13
2019-03-22T00:52:01.944Z,14
2019-03-22T00:53:02.174Z,15
2019-03-22T00:54:02.365Z,14
2019-03-22T00:55:01.674Z,15
2019-03-22T00:56:01.876Z,12
2019-03-22T00:57:02.106Z,14
2019-03-22T00:58:02.355Z,14
2019-03-22T00:59:01.558Z,12
2019-03-22T01:00:03.899Z,13
2019-03-22T01:01:01.726Z,14
2019-03-22T01:02:01.940Z,14
2019-03-22T01:03:02.235Z,12
2019-03-22T01:04:01.429Z,13
2019-03-22T01:05:01.626Z,14
2019-03-22T01:06:01.850Z,13
2019-03-22T01:07:06.607Z,15
2019-03-22T01:08:02.259Z,14
2019-03-22T01:09:01.528Z,12
2019-03-22T01:10:01.743Z,14
2019-03-22T01:11:01.893Z,15
2019-03-22T01:12:02.178Z,13
2019-03-22T01:13:02.438Z,15
2019-03-22T01:14:01.614Z,13
2019-03-22T01:15:01.860Z,13
2019-03-22T01:16:02.008Z,14
2019-03-22T01:17:02.241Z,11
2019-03-22T01:18:01.430Z,13
2019-03-22T01:19:01.679Z,12
2019-03-22T01:20:01.851Z,12
2019-03-22T01:21:02.174Z,12
2019-03-22T01:22:01.798Z,14
2019-03-22T01:23:01.987Z,15
2019-03-22T01:24:02.312Z,13
2019-03-22T01:25:01.545Z,13
2019-03-22T01:26:01.770Z,13
2019-03-22T01:27:01.991Z,13
2019-03-22T01:28:02.199Z,13
2019-03-22T01:29:02.427Z,14
2019-03-22T01:30:01.641Z,15
2019-03-22T01:31:01.870Z,12
2019-03-22T01:32:02.159Z,14
2019-03-22T01:33:02.350Z,12
2019-03-22T01:34:01.576Z,13
2019-03-22T01:35:01.918Z,14
2019-03-22T01:36:02.018Z,13
2019-03-22T01:37:02.274Z,14
2019-03-22T01:38:01.496Z,14
2019-03-22T01:39:01.702Z,14
2019-03-22T01:40:01.985Z,14
2019-03-22T01:41:02.277Z,14
2019-03-22T01:42:01.602Z,14
2019-03-22T01:43:01.797Z,14
2019-03-22T01:44:02.142Z,13
2019-03-22T01:45:02.315Z,13
2019-03-22T01:46:01.885Z,12
2019-03-22T01:47:02.052Z,14
2019-03-22T01:48:02.219Z,13
2019-03-22T01:49:01.461Z,13
2019-03-22T01:50:01.698Z,13
2019-03-22T01:51:01.875Z,15
2019-03-22T01:52:02.102Z,14
2019-03-22T01:53:02.344Z,14
2019-03-22T01:54:01.581Z,13
2019-03-22T01:55:01.822Z,12
2019-03-22T01:56:02.052Z,14
2019-03-22T01:57:02.298Z,12
2019-03-22T01:58:01.424Z,14
2019-03-22T01:59:01.703Z,14
2019-03-22T02:00:03.732Z,13
2019-03-22T02:01:01.524Z,16
2019-03-22T02:02:01.799Z,13
2019-03-22T02:03:01.979Z,14
2019-03-22T02:04:02.250Z,13
2019-03-22T02:05:01.568Z,12
2019-03-22T02:06:01.732Z,14
2019-03-22T02:07:01.933Z,13
2019-03-22T02:08:02.185Z,13
2019-03-22T02:09:02.092Z,12
2019-03-22T02:10:02.314Z,16
2019-03-22T02:11:01.545Z,13
2019-03-22T02:12:01.889Z,14
2019-03-22T02:13:01.953Z,13
2019-03-22T02:14:02.144Z,14
2019-03-22T02:15:02.344Z,15
2019-03-22T02:16:01.548Z,14
2019-03-22T02:17:01.821Z,13
2019-03-22T02:18:02.110Z,12
2019-03-22T02:19:02.262Z,14
2019-03-22T02:20:01.542Z,15
2019-03-22T02:21:05.303Z,13
2019-03-22T02:22:02.075Z,15
2019-03-22T02:23:02.362Z,14
2019-03-22T02:24:01.507Z,13
2019-03-22T02:25:01.724Z,13
2019-03-22T02:26:01.908Z,15
2019-03-22T02:27:02.117Z,14
2019-03-22T02:28:04.450Z,15
2019-03-22T02:29:01.819Z,14
2019-03-22T02:30:01.913Z,14
2019-03-22T02:31:02.077Z,14
2019-03-22T02:32:02.289Z,14
2019-03-22T02:33:01.537Z,15
2019-03-22T02:34:01.863Z,14
2019-03-22T02:35:02.018Z,14
2019-03-22T02:36:02.251Z,16
2019-03-22T02:37:01.516Z,13
2019-03-22T02:38:01.841Z,14
2019-03-22T02:39:02.035Z,14
2019-03-22T02:40:02.180Z,14
2019-03-22T02:41:01.870Z,14
2019-03-22T02:42:02.019Z,13
2019-03-22T02:43:02.290Z,15
2019-03-22T02:44:01.527Z,14
2019-03-22T02:45:01.769Z,15
2019-03-22T02:46:01.659Z,14
2019-03-22T02:47:01.914Z,13
2019-03-22T02:48:02.063Z,14
2019-03-22T02:49:02.447Z,13
2019-03-22T02:50:11.638Z,13
2019-03-22T02:51:01.863Z,11
2019-03-22T02:52:02.027Z,13
2019-03-22T02:53:02.168Z,14
2019-03-22T02:54:01.441Z,14
2019-03-22T02:55:01.685Z,13
2019-03-22T02:56:02.053Z,12
2019-03-22T02:57:02.075Z,14
2019-03-22T02:58:02.362Z,13
2019-03-22T02:59:01.495Z,14
2019-03-22T03:00:04.036Z,14
2019-03-22T03:01:01.758Z,15
2019-03-22T03:02:01.663Z,14
2019-03-22T03:03:01.918Z,13
2019-03-22T03:04:02.171Z,14
2019-03-22T03:05:02.505Z,15
2019-03-22T03:06:01.656Z,14
2019-03-22T03:07:01.859Z,15
2019-03-22T03:08:02.097Z,13
2019-03-22T03:09:02.293Z,14
2019-03-22T03:10:01.652Z,12
2019-03-22T03:11:02.173Z,13
2019-03-22T03:12:02.310Z,13
2019-03-22T03:13:01.663Z,15
2019-03-22T03:14:01.797Z,16
2019-03-22T03:15:02.106Z,12
2019-03-22T03:16:02.300Z,12
2019-03-22T03:17:01.579Z,15
2019-03-22T03:18:01.770Z,13
2019-03-22T03:19:02.106Z,14
2019-03-22T03:20:02.221Z,16
2019-03-22T03:21:01.444Z,14
2019-03-22T03:22:01.734Z,14
2019-03-22T03:23:01.994Z,15
2019-03-22T03:24:02.233Z,15
2019-03-22T03:25:01.449Z,13
2019-03-22T03:26:01.624Z,13
2019-03-22T03:27:01.788Z,15
2019-03-22T03:28:01.981Z,16
2019-03-22T03:29:02.181Z,14
2019-03-22T03:30:02.473Z,14
2019-03-22T03:31:01.670Z,16
2019-03-22T03:32:01.945Z,13
2019-03-22T03:33:02.217Z,16
2019-03-22T03:34:02.395Z,14
2019-03-22T03:35:02.195Z,13
2019-03-22T03:36:02.410Z,15
2019-03-22T03:37:01.580Z,15
2019-03-22T03:38:01.815Z,14
2019-03-22T03:39:02.018Z,14
2019-03-22T03:40:02.390Z,12
2019-03-22T03:41:01.460Z,15
2019-03-22T03:42:01.939Z,14
2019-03-22T03:43:01.925Z,14
2019-03-22T03:44:02.145Z,17
2019-03-22T03:45:02.375Z,14
2019-03-22T03:46:01.550Z,15
2019-03-22T03:47:01.815Z,15
2019-03-22T03:48:01.909Z,13
2019-03-22T03:49:02.244Z,15
2019-03-22T03:50:01.512Z,16
2019-03-22T03:51:01.749Z,13
2019-03-22T03:52:01.979Z,15
2019-03-22T03:53:02.272Z,16
2019-03-22T03:54:01.503Z,15
2019-03-22T03:55:01.699Z,13
2019-03-22T03:56:01.971Z,14
2019-03-22T03:57:02.203Z,13
2019-03-22T03:58:02.313Z,15
2019-03-22T03:59:01.526Z,12
2019-03-22T04:00:01.789Z,15
2019-03-22T04:01:02.059Z,14
2019-03-22T04:02:02.257Z,16
2019-03-22T04:03:01.451Z,14
2019-03-22T04:04:01.693Z,17
2019-03-22T04:05:02.079Z,12
2019-03-22T04:06:02.227Z,14
2019-03-22T04:07:01.493Z,13
2019-03-22T04:08:01.692Z,15
2019-03-22T04:09:01.944Z,13
2019-03-22T04:10:02.227Z,14
2019-03-22T04:11:02.359Z,14
2019-03-22T04:12:01.676Z,13
2019-03-22T04:13:01.845Z,13
2019-03-22T04:14:02.127Z,15
2019-03-22T04:15:02.336Z,15
2019-03-22T04:16:01.545Z,12
2019-03-22T04:17:01.785Z,13
2019-03-22T04:18:02.023Z,16
2019-03-22T04:19:02.499Z,13
2019-03-22T04:20:01.761Z,14
2019-03-22T04:21:01.783Z,16
2019-03-22T04:22:01.989Z,14
2019-03-22T04:23:02.271Z,14
2019-03-22T04:24:01.417Z,16
2019-03-22T04:25:02.127Z,15
2019-03-22T04:26:01.878Z,15
2019-03-22T04:27:02.112Z,14
2019-03-22T04:28:02.316Z,14
2019-03-22T04:29:07.742Z,14
2019-03-22T04:30:01.913Z,14
2019-03-22T04:31:02.063Z,14
2019-03-22T04:32:02.280Z,15
2019-03-22T04:33:01.583Z,17
2019-03-22T04:34:01.723Z,17
2019-03-22T04:35:01.526Z,15
2019-03-22T04:36:01.703Z,15
2019-03-22T04:37:01.922Z,13
2019-03-22T04:38:02.126Z,14
2019-03-22T04:39:02.367Z,15
2019-03-22T04:40:01.605Z,15
2019-03-22T04:41:01.912Z,15
2019-03-22T04:42:02.103Z,14
2019-03-22T04:43:02.332Z,14
2019-03-22T04:44:01.658Z,13
2019-03-22T04:45:01.955Z,14
2019-03-22T04:46:02.254Z,14
2019-03-22T04:47:02.392Z,14
2019-03-22T04:48:02.209Z,12
2019-03-22T04:49:01.458Z,14
2019-03-22T04:50:01.671Z,15
2019-03-22T04:51:01.923Z,13
2019-03-22T04:52:01.895Z,14
2019-03-22T04:53:02.160Z,15
2019-03-22T04:54:02.312Z,13
2019-03-22T04:55:01.644Z,12
2019-03-22T04:56:01.518Z,13
2019-03-22T04:57:01.797Z,14
2019-03-22T04:58:01.995Z,15
2019-03-22T04:59:02.195Z,13
2019-03-22T05:00:03.147Z,15
2019-03-22T05:01:02.037Z,14
2019-03-22T05:02:02.150Z,14
2019-03-22T05:03:02.456Z,15
2019-03-22T05:04:01.736Z,14
2019-03-22T05:05:01.967Z,13
2019-03-22T05:06:02.171Z,16
2019-03-22T05:07:02.366Z,15
2019-03-22T05:08:02.343Z,13
2019-03-22T05:09:01.460Z,15
2019-03-22T05:10:01.757Z,15
2019-03-22T05:11:01.702Z,14
2019-03-22T05:12:01.903Z,15
2019-03-22T05:13:02.147Z,11
2019-03-22T05:14:02.326Z,13
2019-03-22T05:15:01.529Z,12
2019-03-22T05:16:01.825Z,14
2019-03-22T05:17:02.037Z,12
2019-03-22T05:18:02.231Z,14
2019-03-22T05:19:01.445Z,14
2019-03-22T05:20:01.769Z,16
2019-03-22T05:21:02.072Z,14
2019-03-22T05:22:02.230Z,13
2019-03-22T05:23:02.374Z,15
2019-03-22T05:24:01.623Z,15
2019-03-22T05:25:01.862Z,14
2019-03-22T05:26:01.937Z,13
2019-03-22T05:27:02.145Z,13
2019-03-22T05:28:02.405Z,15
2019-03-22T05:29:01.591Z,13
2019-03-22T05:30:01.873Z,14
2019-03-22T05:31:02.161Z,14
2019-03-22T05:32:02.417Z,16
2019-03-22T05:33:01.603Z,14
2019-03-22T05:34:01.847Z,15
2019-03-22T05:35:02.159Z,16
2019-03-22T05:36:02.455Z,12
2019-03-22T05:37:01.617Z,15
2019-03-22T05:38:01.648Z,14
2019-03-22T05:39:01.872Z,13
2019-03-22T05:40:02.150Z,14
2019-03-22T05:41:02.446Z,14
2019-03-22T05:42:01.628Z,14
2019-03-22T05:43:01.885Z,15
2019-03-22T05:44:02.053Z,15
2019-03-22T05:45:02.341Z,14
2019-03-22T05:46:01.641Z,14
2019-03-22T05:47:01.858Z,14
2019-03-22T05:48:02.057Z,15
2019-03-22T05:49:02.296Z,14
2019-03-22T05:50:01.549Z,15
2019-03-22T05:51:01.781Z,14
2019-03-22T05:52:01.977Z,14
2019-03-22T05:53:02.088Z,15
2019-03-22T05:54:02.306Z,15
2019-03-22T05:55:01.613Z,14
2019-03-22T05:56:02.004Z,15
2019-03-22T05:57:12.783Z,12
2019-03-22T05:58:02.282Z,14
2019-03-22T05:59:01.523Z,14
2019-03-22T06:00:03.963Z,15
2019-03-22T06:01:01.949Z,15
2019-03-22T06:02:02.066Z,15
2019-03-22T06:03:02.267Z,14
2019-03-22T06:04:01.488Z,13
2019-03-22T06:05:01.734Z,15
2019-03-22T06:06:02.033Z,14
2019-03-22T06:07:02.103Z,15
2019-03-22T06:08:02.286Z,14
2019-03-22T06:09:01.468Z,14
2019-03-22T06:10:01.879Z,14
2019-03-22T06:11:02.128Z,16
2019-03-22T06:12:02.330Z,14
2019-03-22T06:13:01.550Z,15
2019-03-22T06:14:01.688Z,15
2019-03-22T06:15:01.959Z,15
2019-03-22T06:16:02.203Z,14
2019-03-22T06:17:02.395Z,14
2019-03-22T06:18:01.682Z,15
2019-03-22T06:19:01.911Z,15
2019-03-22T06:20:02.142Z,13
2019-03-22T06:21:02.353Z,15
2019-03-22T06:22:01.560Z,13
2019-03-22T06:23:01.824Z,14
2019-03-22T06:24:02.134Z,13
2019-03-22T06:25:02.464Z,13
2019-03-22T06:26:01.584Z,13
2019-03-22T06:27:01.923Z,16
2019-03-22T06:28:02.190Z,14
2019-03-22T06:29:01.967Z,14
2019-03-22T06:30:02.425Z,15
2019-03-22T06:31:01.672Z,15
2019-03-22T06:32:01.863Z,15
2019-03-22T06:33:02.147Z,16
2019-03-22T06:34:02.258Z,16
2019-03-22T06:35:01.591Z,14
2019-03-22T06:36:01.759Z,12
2019-03-22T06:37:01.970Z,13
2019-03-22T06:38:02.129Z,17
2019-03-22T06:39:02.318Z,20
2019-03-22T06:40:01.610Z,19
2019-03-22T06:41:01.816Z,22
2019-03-22T06:42:03.096Z,19
2019-03-22T06:43:02.374Z,21
2019-03-22T06:44:01.514Z,20
2019-03-22T06:45:01.757Z,21
2019-03-22T06:46:01.913Z,16
2019-03-22T06:47:02.191Z,18
2019-03-22T06:48:01.470Z,18
2019-03-22T06:49:01.660Z,17
2019-03-22T06:50:01.924Z,17
2019-03-22T06:51:02.314Z,18
2019-03-22T06:52:01.563Z,18
2019-03-22T06:53:01.811Z,18
2019-03-22T06:54:02.010Z,17
2019-03-22T06:55:02.296Z,16
2019-03-22T06:56:01.409Z,18
2019-03-22T06:57:01.658Z,18
2019-03-22T06:58:01.913Z,17
2019-03-22T06:59:02.193Z,19
2019-03-22T07:00:06.935Z,17
2019-03-22T07:01:02.056Z,15
2019-03-22T07:02:02.241Z,15
2019-03-22T07:03:01.464Z,16
2019-03-22T07:04:01.767Z,16
2019-03-22T07:05:01.912Z,17
2019-03-22T07:06:02.121Z,17
2019-03-22T07:07:02.418Z,18
2019-03-22T07:08:01.579Z,14
2019-03-22T07:09:01.811Z,17
2019-03-22T07:10:01.964Z,15
2019-03-22T07:11:02.191Z,16
2019-03-22T07:12:02.371Z,17
2019-03-22T07:13:01.600Z,17
2019-03-22T07:14:01.903Z,16
2019-03-22T07:15:02.269Z,15
2019-03-22T07:16:01.426Z,16
2019-03-22T07:17:01.694Z,19
2019-03-22T07:18:01.865Z,15
2019-03-22T07:19:02.207Z,17
2019-03-22T07:20:02.394Z,18
2019-03-22T07:21:02.419Z,15
2019-03-22T07:22:01.635Z,18
2019-03-22T07:23:01.907Z,17
2019-03-22T07:24:02.054Z,20
2019-03-22T07:25:02.042Z,17
2019-03-22T07:26:02.221Z,16
2019-03-22T07:27:01.417Z,16
2019-03-22T07:28:01.592Z,15
2019-03-22T07:29:01.850Z,15
2019-03-22T07:30:02.061Z,16
2019-03-22T07:31:02.166Z,16
2019-03-22T07:32:02.401Z,16
2019-03-22T07:33:01.666Z,14
2019-03-22T07:34:02.024Z,18
2019-03-22T07:35:02.230Z,16
2019-03-22T07:36:01.395Z,18
2019-03-22T07:37:01.601Z,15
2019-03-22T07:38:01.847Z,19
2019-03-22T07:39:02.208Z,18
2019-03-22T07:40:01.563Z,14
2019-03-22T07:41:01.786Z,15
2019-03-22T07:42:01.964Z,17
2019-03-22T07:43:02.239Z,14
2019-03-22T07:44:01.474Z,15
2019-03-22T07:45:01.653Z,13
2019-03-22T07:46:01.888Z,16
2019-03-22T07:47:02.159Z,15
2019-03-22T07:48:02.229Z,15
2019-03-22T07:49:02.459Z,16
2019-03-22T07:50:01.541Z,15
2019-03-22T07:51:01.745Z,16
2019-03-22T07:52:02.001Z,17
2019-03-22T07:53:02.231Z,16
2019-03-22T07:54:03.695Z,17
2019-03-22T07:55:01.684Z,15
2019-03-22T07:56:01.906Z,17
2019-03-22T07:57:02.084Z,17
2019-03-22T07:58:02.328Z,16
2019-03-22T07:59:01.546Z,15
2019-03-22T08:00:04.116Z,14
2019-03-22T08:01:01.854Z,16
2019-03-22T08:02:02.155Z,16
2019-03-22T08:03:02.397Z,16
2019-03-22T08:04:01.591Z,16
2019-03-22T08:05:02.396Z,16
2019-03-22T08:06:01.608Z,15
2019-03-22T08:07:01.883Z,15
2019-03-22T08:08:02.405Z,16
2019-03-22T08:09:02.466Z,15
2019-03-22T08:10:01.703Z,15
2019-03-22T08:11:01.815Z,14
2019-03-22T08:12:02.146Z,16
2019-03-22T08:13:02.275Z,15
2019-03-22T08:14:01.506Z,17
2019-03-22T08:15:01.764Z,17
2019-03-22T08:16:02.040Z,16
2019-03-22T08:17:02.271Z,15
2019-03-22T08:18:01.495Z,14
2019-03-22T08:19:01.864Z,13
2019-03-22T08:20:02.009Z,14
2019-03-22T08:21:02.253Z,15
2019-03-22T08:22:01.490Z,15
2019-03-22T08:23:01.692Z,15
2019-03-22T08:24:01.960Z,15
2019-03-22T08:25:02.104Z,12
2019-03-22T08:26:02.289Z,14
2019-03-22T08:27:01.520Z,15
2019-03-22T08:28:01.681Z,14
2019-03-22T08:29:01.902Z,13
2019-03-22T08:30:01.509Z,13
2019-03-22T08:31:01.695Z,15
2019-03-22T08:32:01.996Z,15
2019-03-22T08:33:02.134Z,15
2019-03-22T08:34:02.488Z,12
2019-03-22T08:35:01.633Z,14
2019-03-22T08:36:01.730Z,13
2019-03-22T08:37:01.974Z,15
2019-03-22T08:38:01.911Z,15
2019-03-22T08:39:02.414Z,13
2019-03-22T08:40:02.481Z,14
2019-03-22T08:41:01.677Z,14
2019-03-22T08:42:01.863Z,14
2019-03-22T08:43:02.040Z,15
2019-03-22T08:44:02.957Z,15
2019-03-22T08:45:01.565Z,13
2019-03-22T08:46:01.846Z,13
2019-03-22T08:47:02.048Z,13
2019-03-22T08:48:02.319Z,12
2019-03-22T08:49:01.538Z,15
2019-03-22T08:50:01.741Z,15
2019-03-22T08:51:01.920Z,14
2019-03-22T08:52:02.165Z,13
2019-03-22T08:53:02.329Z,14
2019-03-22T08:54:02.171Z,14
2019-03-22T08:55:02.365Z,13
2019-03-22T08:56:01.515Z,14
2019-03-22T08:57:01.754Z,15
2019-03-22T08:58:01.900Z,14
2019-03-22T08:59:02.143Z,14
2019-03-22T09:00:03.535Z,15
2019-03-22T09:01:02.355Z,16
2019-03-22T09:02:02.414Z,13
2019-03-22T09:03:01.548Z,14
2019-03-22T09:04:01.938Z,12
2019-03-22T09:05:02.123Z,15
2019-03-22T09:06:02.242Z,15
2019-03-22T09:07:01.435Z,14
2019-03-22T09:08:01.697Z,12
2019-03-22T09:09:01.801Z,14
2019-03-22T09:10:02.127Z,15
2019-03-22T09:11:02.293Z,14
2019-03-22T09:12:01.418Z,13
2019-03-22T09:13:01.653Z,14
2019-03-22T09:14:01.895Z,14
2019-03-22T09:15:02.158Z,16
2019-03-22T09:16:02.426Z,15
2019-03-22T09:17:01.638Z,14
2019-03-22T09:18:01.844Z,14
2019-03-22T09:19:02.045Z,13
2019-03-22T09:20:02.330Z,15
2019-03-22T09:21:01.523Z,14
2019-03-22T09:22:01.642Z,14
2019-03-22T09:23:01.958Z,13
2019-03-22T09:24:02.155Z,13
2019-03-22T09:25:02.499Z,16
2019-03-22T09:26:01.716Z,13
2019-03-22T09:27:01.929Z,14
2019-03-22T09:28:02.132Z,14
2019-03-22T09:29:02.222Z,13
2019-03-22T09:30:01.471Z,12
2019-03-22T09:31:10.203Z,15
2019-03-22T09:32:01.927Z,13
2019-03-22T09:33:02.027Z,13
2019-03-22T09:34:02.335Z,15
2019-03-22T09:35:01.522Z,12
2019-03-22T09:36:02.438Z,14
2019-03-22T09:37:01.706Z,12
2019-03-22T09:38:12.431Z,14
2019-03-22T09:39:02.148Z,12
2019-03-22T09:40:02.483Z,15
2019-03-22T09:41:01.710Z,14
2019-03-22T09:42:01.933Z,15
2019-03-22T09:43:02.182Z,16
2019-03-22T09:44:02.303Z,16
2019-03-22T09:45:01.540Z,16
2019-03-22T09:46:01.747Z,15
2019-03-22T09:47:01.967Z,13
2019-03-22T09:48:02.218Z,15
2019-03-22T09:49:02.357Z,15
2019-03-22T09:50:01.605Z,13
2019-03-22T09:51:01.753Z,14
2019-03-22T09:52:01.956Z,14
2019-03-22T09:53:02.442Z,14
2019-03-22T09:54:01.449Z,15
2019-03-22T09:55:12.686Z,13
2019-03-22T09:56:01.772Z,15
2019-03-22T09:57:01.966Z,14
2019-03-22T09:58:02.245Z,14
2019-03-22T09:59:02.355Z,12
2019-03-22T10:00:04.481Z,14
2019-03-22T10:01:01.465Z,13
2019-03-22T10:02:01.592Z,15
2019-03-22T10:03:01.939Z,14
2019-03-22T10:04:02.223Z,15
2019-03-22T10:05:02.397Z,14
2019-03-22T10:06:01.656Z,15
2019-03-22T10:07:01.944Z,15
2019-03-22T10:08:02.190Z,14
2019-03-22T10:09:05.355Z,14
2019-03-22T10:10:02.485Z,15
2019-03-22T10:11:01.596Z,13
2019-03-22T10:12:01.908Z,14
2019-03-22T10:13:02.044Z,16
2019-03-22T10:14:02.306Z,15
2019-03-22T10:15:01.542Z,14
2019-03-22T10:16:01.696Z,14
2019-03-22T10:17:01.921Z,15
2019-03-22T10:18:02.216Z,14
2019-03-22T10:19:02.347Z,15
2019-03-22T10:20:01.787Z,14
2019-03-22T10:21:01.843Z,13
2019-03-22T10:22:02.048Z,17
2019-03-22T10:23:02.317Z,14
2019-03-22T10:24:01.429Z,14
2019-03-22T10:25:02.029Z,15
2019-03-22T10:26:02.157Z,13
2019-03-22T10:27:05.089Z,14
2019-03-22T10:28:01.798Z,14
2019-03-22T10:29:02.023Z,15
2019-03-22T10:30:02.136Z,15
2019-03-22T10:31:02.334Z,14
2019-03-22T10:32:01.564Z,13
2019-03-22T10:33:01.776Z,15
2019-03-22T10:34:01.962Z,14
2019-03-22T10:35:02.198Z,15
2019-03-22T10:36:01.408Z,15
2019-03-22T10:37:01.653Z,14
2019-03-22T10:38:04.740Z,16
2019-03-22T10:39:02.204Z,14
2019-03-22T10:40:02.431Z,15
2019-03-22T10:41:01.546Z,16
2019-03-22T10:42:01.881Z,15
2019-03-22T10:43:02.084Z,14
2019-03-22T10:44:02.282Z,16
2019-03-22T10:45:01.510Z,15
2019-03-22T10:46:01.667Z,16
2019-03-22T10:47:01.971Z,16
2019-03-22T10:48:02.184Z,15
2019-03-22T10:49:02.525Z,17
2019-03-22T10:50:01.588Z,15
2019-03-22T10:51:01.743Z,17
2019-03-22T10:52:04.487Z,14
2019-03-22T10:53:02.230Z,17
2019-03-22T10:54:01.453Z,16
2019-03-22T10:55:17.372Z,15
2019-03-22T10:56:01.916Z,16
2019-03-22T10:57:02.191Z,14
2019-03-22T10:58:02.328Z,15
2019-03-22T10:59:01.528Z,18
2019-03-22T11:00:03.717Z,14
2019-03-22T11:01:01.506Z,16
2019-03-22T11:02:03.683Z,14
2019-03-22T11:03:02.347Z,14
2019-03-22T11:04:01.660Z,17
2019-03-22T11:05:02.146Z,17
2019-03-22T11:06:01.957Z,17
2019-03-22T11:07:02.218Z,15
2019-03-22T11:08:02.389Z,14
2019-03-22T11:09:01.599Z,16
2019-03-22T11:10:01.781Z,16
2019-03-22T11:11:01.968Z,17
2019-03-22T11:12:11.754Z,17
2019-03-22T11:13:02.465Z,16
2019-03-22T11:14:01.541Z,17
2019-03-22T11:15:01.770Z,16
2019-03-22T11:16:01.869Z,17
2019-03-22T11:17:02.143Z,15
2019-03-22T11:18:02.338Z,14
2019-03-22T11:19:01.505Z,16
2019-03-22T11:20:01.710Z,14
2019-03-22T11:21:05.362Z,15
2019-03-22T11:22:02.071Z,14
2019-03-22T11:23:02.456Z,16
2019-03-22T11:24:01.592Z,15
2019-03-22T11:25:02.417Z,17
2019-03-22T11:26:04.275Z,17
2019-03-22T11:27:01.842Z,16
2019-03-22T11:28:02.046Z,16
2019-03-22T11:29:02.266Z,18
2019-03-22T11:30:01.544Z,18
2019-03-22T11:31:04.976Z,18
2019-03-22T11:32:01.939Z,18
2019-03-22T11:33:02.106Z,16
2019-03-22T11:34:02.355Z,16
2019-03-22T11:35:01.562Z,16
2019-03-22T11:36:01.817Z,18
2019-03-22T11:37:02.056Z,16
2019-03-22T11:38:02.254Z,19
2019-03-22T11:39:01.490Z,17
2019-03-22T11:40:01.730Z,17
2019-03-22T11:41:01.851Z,17
2019-03-22T11:42:02.186Z,18
2019-03-22T11:43:08.544Z,20
2019-03-22T11:44:01.486Z,17
2019-03-22T11:45:01.646Z,15
2019-03-22T11:46:01.895Z,17
2019-03-22T11:47:02.134Z,19
2019-03-22T11:48:02.325Z,17
2019-03-22T11:49:01.564Z,15
2019-03-22T11:50:01.765Z,17
2019-03-22T11:51:01.957Z,16
2019-03-22T11:52:02.222Z,17
2019-03-22T11:53:01.454Z,18
2019-03-22T11:54:01.703Z,17
2019-03-22T11:55:01.951Z,17
2019-03-22T11:56:02.150Z,17
2019-03-22T11:57:02.426Z,18
2019-03-22T11:58:01.612Z,18
2019-03-22T11:59:01.771Z,17
2019-03-22T12:00:04.675Z,18
2019-03-22T12:01:01.546Z,20
2019-03-22T12:02:01.775Z,17
2019-03-22T12:03:02.065Z,16
2019-03-22T12:04:02.258Z,18
2019-03-22T12:05:01.495Z,18
2019-03-22T12:06:01.646Z,18
2019-03-22T12:07:01.890Z,20
2019-03-22T12:08:02.227Z,18
2019-03-22T12:09:02.272Z,17
2019-03-22T12:10:01.504Z,18
2019-03-22T12:11:01.501Z,18
2019-03-22T12:12:01.695Z,19
2019-03-22T12:13:01.991Z,19
2019-03-22T12:14:02.126Z,18
2019-03-22T12:15:02.351Z,19
2019-03-22T12:16:01.481Z,20
2019-03-22T12:17:01.719Z,19
2019-03-22T12:18:01.775Z,20
2019-03-22T12:19:01.943Z,19
2019-03-22T12:20:02.170Z,19
2019-03-22T12:21:01.635Z,20
2019-03-22T12:22:01.815Z,17
2019-03-22T12:23:02.040Z,18
2019-03-22T12:24:02.213Z,18
2019-03-22T12:25:01.919Z,20
2019-03-22T12:26:01.843Z,18
2019-03-22T12:27:02.107Z,18
2019-03-22T12:28:02.373Z,18
2019-03-22T12:29:01.519Z,20
2019-03-22T12:30:01.800Z,18
2019-03-22T12:31:02.090Z,19
2019-03-22T12:32:02.290Z,18
2019-03-22T12:33:01.535Z,17
2019-03-22T12:34:01.776Z,17
2019-03-22T12:35:02.023Z,17
2019-03-22T12:36:02.264Z,17
2019-03-22T12:37:01.537Z,17
2019-03-22T12:38:01.798Z,18
2019-03-22T12:39:02.381Z,18
2019-03-22T12:40:01.615Z,17
2019-03-22T12:41:01.868Z,16
2019-03-22T12:42:02.095Z,19
2019-03-22T12:43:02.322Z,18
2019-03-22T12:44:01.550Z,19
2019-03-22T12:45:01.826Z,16
2019-03-22T12:46:02.098Z,16
2019-03-22T12:47:02.337Z,18
2019-03-22T12:48:01.545Z,18
2019-03-22T12:49:01.765Z,16
2019-03-22T12:50:02.085Z,17
2019-03-22T12:51:02.415Z,19
2019-03-22T12:52:01.450Z,17
2019-03-22T12:53:01.693Z,18
2019-03-22T12:54:01.914Z,16
2019-03-22T12:55:02.148Z,18
2019-03-22T12:56:02.325Z,18
2019-03-22T12:57:01.598Z,17
2019-03-22T12:58:01.816Z,18
2019-03-22T12:59:02.110Z,17
2019-03-22T13:00:03.399Z,16
2019-03-22T13:01:02.114Z,18
2019-03-22T13:02:01.947Z,18
2019-03-22T13:03:02.209Z,17
2019-03-22T13:04:01.507Z,18
2019-03-22T13:05:01.683Z,19
2019-03-22T13:06:01.864Z,17
2019-03-22T13:07:02.112Z,16
2019-03-22T13:08:02.528Z,17
2019-03-22T13:09:01.495Z,18
2019-03-22T13:10:01.743Z,18
2019-03-22T13:11:01.532Z,18
2019-03-22T13:12:01.798Z,17
2019-03-22T13:13:01.987Z,16
2019-03-22T13:14:02.183Z,17
2019-03-22T13:15:01.574Z,17
2019-03-22T13:16:01.720Z,18
2019-03-22T13:17:01.965Z,19
2019-03-22T13:18:02.175Z,18
2019-03-22T13:19:02.415Z,19
2019-03-22T13:20:01.920Z,18
2019-03-22T13:21:02.104Z,19
2019-03-22T13:22:02.018Z,16
2019-03-22T13:23:02.338Z,17
2019-03-22T13:24:05.247Z,18
2019-03-22T13:25:01.590Z,18
2019-03-22T13:26:01.761Z,17
2019-03-22T13:27:02.003Z,15
2019-03-22T13:28:02.257Z,18
2019-03-22T13:29:01.475Z,18
2019-03-22T13:30:01.687Z,17
2019-03-22T13:31:01.824Z,16
2019-03-22T13:32:02.062Z,17
2019-03-22T13:33:02.265Z,15
2019-03-22T13:34:01.459Z,18
2019-03-22T13:35:01.723Z,16
2019-03-22T13:36:01.907Z,17
2019-03-22T13:37:02.148Z,16
2019-03-22T13:38:02.232Z,18
2019-03-22T13:39:01.477Z,17
2019-03-22T13:40:02.504Z,17
2019-03-22T13:41:01.683Z,17
2019-03-22T13:42:01.894Z,15
2019-03-22T13:43:02.120Z,16
2019-03-22T13:44:02.356Z,17
2019-03-22T13:45:02.342Z,18
2019-03-22T13:46:01.590Z,18
2019-03-22T13:47:01.752Z,17
2019-03-22T13:48:01.988Z,16
2019-03-22T13:49:02.213Z,17
2019-03-22T13:50:02.512Z,17
2019-03-22T13:51:01.634Z,17
2019-03-22T13:52:02.005Z,16
2019-03-22T13:53:02.100Z,16
2019-03-22T13:54:02.391Z,16
2019-03-22T13:55:01.967Z,19
2019-03-22T13:56:01.857Z,16
2019-03-22T13:57:02.100Z,17
2019-03-22T13:58:02.406Z,17
2019-03-22T13:59:01.564Z,19
2019-03-22T14:00:03.244Z,17
2019-03-22T14:01:02.110Z,17
2019-03-22T14:02:01.840Z,15
2019-03-22T14:03:03.275Z,17
2019-03-22T14:04:02.265Z,17
2019-03-22T14:05:01.610Z,18
2019-03-22T14:06:01.848Z,15
2019-03-22T14:07:02.116Z,16
2019-03-22T14:08:02.279Z,14
2019-03-22T14:09:01.592Z,18
2019-03-22T14:10:01.827Z,16
2019-03-22T14:11:02.091Z,15
2019-03-22T14:12:02.270Z,15
2019-03-22T14:13:01.526Z,16
2019-03-22T14:14:01.646Z,15
2019-03-22T14:15:01.685Z,19